createdAt,value
2019-05-25T00:01:12.012Z,96775.00
2019-05-25T00:03:41.385Z,96785.00
2019-05-25T00:06:11.428Z,96777.00
2019-05-25T00:08:40.914Z,96773.00
2019-05-25T00:11:10.433Z,96770.00
2019-05-25T00:13:40.116Z,96774.00
2019-05-25T00:16:09.934Z,96774.00
2019-05-25T00:18:39.321Z,96774.00
2019-05-25T00:21:09.061Z,96773.00
2019-05-25T00:23:38.858Z,96769.00
2019-05-25T00:26:08.277Z,96775.00
2019-05-25T00:28:37.724Z,96780.00
2019-05-25T00:31:07.280Z,96780.00
2019-05-25T00:33:36.665Z,96777.00
2019-05-25T00:36:06.534Z,96783.00
2019-05-25T00:38:35.916Z,96777.00
2019-05-25T00:41:05.702Z,96775.00
2019-05-25T00:43:35.451Z,96776.00
2019-05-25T00:46:04.884Z,96766.00
2019-05-25T00:48:34.301Z,96779.00
2019-05-25T00:51:03.723Z,96781.00
2019-05-25T00:53:33.173Z,96775.00
2019-05-25T00:56:02.520Z,96781.00
2019-05-25T00:58:32.278Z,96775.00
2019-05-25T01:01:01.775Z,96781.00
2019-05-25T01:03:31.276Z,96773.00
2019-05-25T01:06:00.888Z,96768.00
2019-05-25T01:08:30.334Z,96774.00
2019-05-25T01:10:59.746Z,96770.00
2019-05-25T01:13:29.190Z,96775.00
2019-05-25T01:15:59.515Z,96768.00
2019-05-25T01:18:29.332Z,96770.00
2019-05-25T01:20:58.758Z,96773.00
2019-05-25T01:23:28.252Z,96777.00
2019-05-25T01:25:57.954Z,96775.00
2019-05-25T01:28:27.325Z,96776.00
2019-05-25T01:30:57.094Z,96780.00
2019-05-25T01:33:26.674Z,96776.00
2019-05-25T01:35:56.494Z,96781.00
2019-05-25T01:38:25.867Z,96778.00
2019-05-25T01:40:55.635Z,96773.00
2019-05-25T01:43:24.979Z,96782.00
2019-05-25T01:45:54.955Z,96774.00
2019-05-25T01:48:24.569Z,96779.00
2019-05-25T01:50:53.938Z,96769.00
2019-05-25T01:53:23.277Z,96766.00
2019-05-25T01:55:53.049Z,96770.00
2019-05-25T01:58:22.677Z,96773.00
2019-05-25T02:00:52.509Z,96769.00
2019-05-25T02:03:22.125Z,96764.00
2019-05-25T02:05:51.500Z,96765.00
2019-05-25T02:08:22.214Z,96773.00
2019-05-25T02:10:51.928Z,96765.00
2019-05-25T02:13:21.674Z,96760.00
2019-05-25T02:15:51.376Z,96761.00
2019-05-25T02:18:21.195Z,96758.00
2019-05-25T02:20:50.901Z,96765.00
2019-05-25T02:23:20.824Z,96772.00
2019-05-25T02:25:50.201Z,96767.00
2019-05-25T02:28:19.544Z,96755.00
2019-05-25T02:30:48.921Z,96759.00
2019-05-25T02:33:18.632Z,96766.00
2019-05-25T02:35:48.371Z,96771.00
2019-05-25T02:38:18.133Z,96771.00
2019-05-25T02:40:47.871Z,96778.00
2019-05-25T02:43:17.287Z,96770.00
2019-05-25T02:45:47.187Z,96771.00
2019-05-25T02:48:16.605Z,96768.00
2019-05-25T02:50:46.321Z,96775.00
2019-05-25T02:53:15.667Z,96776.00
2019-05-25T02:55:45.492Z,96771.00
2019-05-25T02:58:14.909Z,96777.00
2019-05-25T03:00:44.505Z,96771.00
2019-05-25T03:03:14.377Z,96767.00
2019-05-25T03:05:44.189Z,96777.00
2019-05-25T03:08:13.597Z,96773.00
2019-05-25T03:10:43.721Z,96776.00
2019-05-25T03:13:13.402Z,96780.00
2019-05-25T03:15:42.783Z,96773.00
2019-05-25T03:18:12.128Z,96788.00
2019-05-25T03:20:41.883Z,96786.00
2019-05-25T03:23:11.311Z,96788.00
2019-05-25T03:25:49.100Z,96785.00
2019-05-25T03:28:14.627Z,96788.00
2019-05-25T03:30:44.007Z,96784.00
2019-05-25T03:33:13.384Z,96790.00
2019-05-25T03:35:43.263Z,96780.00
2019-05-25T03:38:12.610Z,96786.00
2019-05-25T03:40:42.126Z,96779.00
2019-05-25T03:43:13.537Z,96791.00
2019-05-25T03:45:42.976Z,96782.00
2019-05-25T03:48:12.402Z,96791.00
2019-05-25T03:50:41.915Z,96789.00
2019-05-25T03:53:13.020Z,96786.00
2019-05-25T03:55:42.751Z,96787.00
2019-05-25T03:58:12.102Z,96789.00
2019-05-25T04:00:41.966Z,96790.00
2019-05-25T04:03:11.678Z,96792.00
2019-05-25T04:05:41.341Z,96797.00
2019-05-25T04:08:10.758Z,96796.00
2019-05-25T04:10:40.533Z,96797.00
2019-05-25T04:13:12.385Z,96801.00
2019-05-25T04:15:41.466Z,96796.00
2019-05-25T04:18:10.884Z,96811.00
2019-05-25T04:20:40.574Z,96821.00
2019-05-25T04:23:10.085Z,96806.00
2019-05-25T04:25:39.824Z,96809.00
2019-05-25T04:28:10.878Z,96814.00
2019-05-25T04:30:40.257Z,96813.00
2019-05-25T04:33:09.995Z,96810.00
2019-05-25T04:35:39.446Z,96812.00
2019-05-25T04:38:09.105Z,96807.00
2019-05-25T04:40:38.664Z,96815.00
2019-05-25T04:43:08.045Z,96816.00
2019-05-25T04:45:37.713Z,96824.00
2019-05-25T04:48:07.638Z,96817.00
2019-05-25T04:50:37.450Z,96825.00
2019-05-25T04:53:06.833Z,96828.00
2019-05-25T04:55:36.669Z,96823.00
2019-05-25T04:58:06.507Z,96826.00
2019-05-25T05:00:36.007Z,96827.00
2019-05-25T05:03:05.919Z,96827.00
2019-05-25T05:05:35.225Z,96829.00
2019-05-25T05:08:04.679Z,96830.00
2019-05-25T05:10:34.490Z,96834.00
2019-05-25T05:13:04.103Z,96831.00
2019-05-25T05:15:33.870Z,96830.00
2019-05-25T05:18:03.277Z,96822.00
2019-05-25T05:20:32.675Z,96821.00
2019-05-25T05:23:02.433Z,96834.00
2019-05-25T05:25:32.038Z,96821.00
2019-05-25T05:28:01.790Z,96824.00
2019-05-25T05:30:35.572Z,96833.00
2019-05-25T05:33:05.695Z,96824.00
2019-05-25T05:35:38.911Z,96823.00
2019-05-25T05:38:07.293Z,96825.00
2019-05-25T05:40:37.877Z,96821.00
2019-05-25T05:43:12.710Z,96827.00
2019-05-25T05:45:43.448Z,96824.00
2019-05-25T05:48:14.017Z,96823.00
2019-05-25T05:50:44.138Z,96820.00
2019-05-25T05:53:13.951Z,96828.00
2019-05-25T05:55:43.658Z,96823.00
2019-05-25T05:58:13.380Z,96827.00
2019-05-25T06:00:42.879Z,96831.00
2019-05-25T06:03:12.670Z,96827.00
2019-05-25T06:05:42.166Z,96829.00
2019-05-25T06:08:12.321Z,96831.00
2019-05-25T06:10:41.822Z,96823.00
2019-05-25T06:13:11.533Z,96830.00
2019-05-25T06:15:41.246Z,96832.00
2019-05-25T06:18:10.661Z,96833.00
2019-05-25T06:20:40.275Z,96835.00
2019-05-25T06:23:12.455Z,96837.00
2019-05-25T06:25:41.487Z,96838.00
2019-05-25T06:28:11.235Z,96842.00
2019-05-25T06:30:40.665Z,96838.00
2019-05-25T06:33:10.363Z,96841.00
2019-05-25T06:35:39.721Z,96843.00
2019-05-25T06:38:09.432Z,96849.00
2019-05-25T06:40:39.482Z,96846.00
2019-05-25T06:43:09.359Z,96848.00
2019-05-25T06:45:38.863Z,96853.00
2019-05-25T06:48:08.404Z,96849.00
2019-05-25T06:50:37.950Z,96853.00
2019-05-25T06:53:07.413Z,96858.00
2019-05-25T06:55:37.198Z,96867.00
2019-05-25T06:58:06.692Z,96855.00
2019-05-25T07:00:36.531Z,96870.00
2019-05-25T07:03:12.398Z,96869.00
2019-05-25T07:05:41.917Z,96863.00
2019-05-25T07:08:11.343Z,96862.00
2019-05-25T07:10:40.803Z,96867.00
2019-05-25T07:13:10.343Z,96876.00
2019-05-25T07:15:39.874Z,96866.00
2019-05-25T07:18:09.223Z,96871.00
2019-05-25T07:20:38.607Z,96880.00
2019-05-25T07:23:08.022Z,96876.00
2019-05-25T07:25:37.386Z,96874.00
2019-05-25T07:28:06.736Z,96870.00
2019-05-25T07:30:36.247Z,96869.00
2019-05-25T07:33:05.743Z,96875.00
2019-05-25T07:35:35.237Z,96873.00
2019-05-25T07:38:04.733Z,96874.00
2019-05-25T07:40:34.173Z,96864.00
2019-05-25T07:43:03.524Z,96874.00
2019-05-25T07:45:32.983Z,96867.00
2019-05-25T07:48:02.331Z,96866.00
2019-05-25T07:50:31.785Z,96874.00
2019-05-25T07:53:01.320Z,96873.00
2019-05-25T07:55:30.803Z,96870.00
2019-05-25T07:58:15.727Z,96871.00
2019-05-25T08:00:31.579Z,96872.00
2019-05-25T08:03:01.067Z,96867.00
2019-05-25T08:05:30.529Z,96871.00
2019-05-25T08:07:59.996Z,96871.00
2019-05-25T08:10:29.697Z,96873.00
2019-05-25T08:12:59.290Z,96873.00
2019-05-25T08:15:28.810Z,96869.00
2019-05-25T08:17:58.220Z,96877.00
2019-05-25T08:20:27.591Z,96874.00
2019-05-25T08:22:57.128Z,96871.00
2019-05-25T08:25:26.578Z,96875.00
2019-05-25T08:27:55.941Z,96870.00
2019-05-25T08:30:25.521Z,96873.00
2019-05-25T08:32:55.037Z,96867.00
2019-05-25T08:35:24.466Z,96873.00
2019-05-25T08:37:53.846Z,96872.00
2019-05-25T08:40:23.193Z,96873.00
2019-05-25T08:42:52.566Z,96874.00
2019-05-25T08:45:25.691Z,96866.00
2019-05-25T08:47:56.705Z,96870.00
2019-05-25T08:50:37.134Z,96871.00
2019-05-25T08:52:55.396Z,96868.00
2019-05-25T08:55:24.888Z,96867.00
2019-05-25T08:57:54.274Z,96871.00
2019-05-25T09:00:23.787Z,96882.00
2019-05-25T09:02:53.290Z,96872.00
2019-05-25T09:05:22.631Z,96873.00
2019-05-25T09:07:52.021Z,96875.00
2019-05-25T09:10:21.374Z,96869.00
2019-05-25T09:12:50.754Z,96875.00
2019-05-25T09:15:20.235Z,96881.00
2019-05-25T09:17:49.604Z,96882.00
2019-05-25T09:20:19.102Z,96880.00
2019-05-25T09:22:48.479Z,96876.00
2019-05-25T09:25:18.014Z,96878.00
2019-05-25T09:27:47.491Z,96876.00
2019-05-25T09:30:17.266Z,96880.00
2019-05-25T09:32:46.763Z,96887.00
2019-05-25T09:35:16.716Z,96879.00
2019-05-25T09:37:46.121Z,96884.00
2019-05-25T09:40:17.581Z,96881.00
2019-05-25T09:42:47.022Z,96876.00
2019-05-25T09:45:16.666Z,96881.00
2019-05-25T09:47:46.514Z,96879.00
2019-05-25T09:50:16.178Z,96871.00
2019-05-25T09:52:45.553Z,96866.00
2019-05-25T09:55:16.879Z,96865.00
2019-05-25T09:57:46.309Z,96868.00
2019-05-25T10:00:17.073Z,96862.00
2019-05-25T10:02:46.859Z,96861.00
2019-05-25T10:05:18.665Z,96857.00
2019-05-25T10:07:48.113Z,96860.00
2019-05-25T10:10:19.500Z,96862.00
2019-05-25T10:12:48.934Z,96865.00
2019-05-25T10:15:18.519Z,96863.00
2019-05-25T10:17:47.913Z,96861.00
2019-05-25T10:20:18.476Z,96861.00
2019-05-25T10:22:47.912Z,96860.00
2019-05-25T10:25:17.975Z,96852.00
2019-05-25T10:27:47.346Z,96853.00
2019-05-25T10:30:17.405Z,96848.00
2019-05-25T10:32:46.776Z,96857.00
2019-05-25T10:35:18.883Z,96851.00
2019-05-25T10:37:48.364Z,96852.00
2019-05-25T10:40:18.158Z,96850.00
2019-05-25T10:42:47.625Z,96851.00
2019-05-25T10:45:17.593Z,96840.00
2019-05-25T10:47:46.978Z,96836.00
2019-05-25T10:50:16.711Z,96842.00
2019-05-25T10:52:46.168Z,96831.00
2019-05-25T10:55:16.495Z,96827.00
2019-05-25T10:57:46.708Z,96833.00
2019-05-25T11:00:16.863Z,96831.00
2019-05-25T11:02:46.388Z,96826.00
2019-05-25T11:05:16.478Z,96824.00
2019-05-25T11:07:45.819Z,96830.00
2019-05-25T11:10:15.844Z,96830.00
2019-05-25T11:12:45.192Z,96833.00
2019-05-25T11:15:15.775Z,96827.00
2019-05-25T11:17:45.134Z,96824.00
2019-05-25T11:20:15.215Z,96830.00
2019-05-25T11:22:44.647Z,96821.00
2019-05-25T11:25:14.876Z,96814.00
2019-05-25T11:27:44.312Z,96821.00
2019-05-25T11:30:14.610Z,96818.00
2019-05-25T11:32:43.979Z,96818.00
2019-05-25T11:35:15.038Z,96821.00
2019-05-25T11:37:44.449Z,96819.00
2019-05-25T11:40:14.628Z,96818.00
2019-05-25T11:42:44.001Z,96815.00
2019-05-25T11:45:15.385Z,96815.00
2019-05-25T11:48:00.547Z,96807.00
2019-05-25T11:50:30.745Z,96813.00
2019-05-25T11:53:00.117Z,96807.00
2019-05-25T11:55:30.466Z,96807.00
2019-05-25T11:57:59.969Z,96806.00
2019-05-25T12:00:30.091Z,96814.00
2019-05-25T12:02:59.599Z,96805.00
2019-05-25T12:05:29.041Z,96800.00
2019-05-25T12:07:58.401Z,96803.00
2019-05-25T12:10:27.780Z,96802.00
2019-05-25T12:12:57.158Z,96802.00
2019-05-25T12:15:26.607Z,96795.00
2019-05-25T12:17:56.060Z,96790.00
2019-05-25T12:20:25.445Z,96789.00
2019-05-25T12:22:54.877Z,96792.00
2019-05-25T12:25:24.324Z,96788.00
2019-05-25T12:27:53.686Z,96793.00
2019-05-25T12:30:37.859Z,96791.00
2019-05-25T12:32:55.122Z,96786.00
2019-05-25T12:35:24.569Z,96790.00
2019-05-25T12:37:53.938Z,96793.00
2019-05-25T12:40:23.457Z,96791.00
2019-05-25T12:42:52.864Z,96793.00
2019-05-25T12:45:24.559Z,96793.00
2019-05-25T12:47:54.853Z,96796.00
2019-05-25T12:50:24.656Z,96805.00
2019-05-25T12:52:53.997Z,96808.00
2019-05-25T12:55:23.367Z,96815.00
2019-05-25T12:57:52.791Z,96820.00
2019-05-25T13:00:22.474Z,96819.00
2019-05-25T13:02:51.831Z,96836.00
2019-05-25T13:05:33.534Z,96834.00
2019-05-25T13:07:52.504Z,96835.00
2019-05-25T13:10:22.092Z,96824.00
2019-05-25T13:12:51.482Z,96835.00
2019-05-25T13:15:21.028Z,96833.00
2019-05-25T13:17:50.852Z,96824.00
2019-05-25T13:20:20.385Z,96830.00
2019-05-25T13:22:49.737Z,96824.00
2019-05-25T13:25:19.252Z,96825.00
2019-05-25T13:27:48.624Z,96827.00
2019-05-25T13:30:18.232Z,96819.00
2019-05-25T13:32:47.565Z,96816.00
2019-05-25T13:35:17.099Z,96817.00
2019-05-25T13:37:46.432Z,96814.00
2019-05-25T13:40:16.155Z,96813.00
2019-05-25T13:42:45.507Z,96811.00
2019-05-25T13:45:15.193Z,96813.00
2019-05-25T13:47:44.644Z,96828.00
2019-05-25T13:50:15.486Z,96830.00
2019-05-25T13:52:44.841Z,96833.00
2019-05-25T13:55:14.334Z,96825.00
2019-05-25T13:57:43.716Z,96833.00
2019-05-25T14:00:13.876Z,96839.00
2019-05-25T14:02:43.314Z,96843.00
2019-05-25T14:05:13.779Z,96844.00
2019-05-25T14:07:43.728Z,96853.00
2019-05-25T14:10:13.429Z,96859.00
2019-05-25T14:12:42.844Z,96858.00
2019-05-25T14:15:13.046Z,96856.00
2019-05-25T14:17:42.495Z,96846.00
2019-05-25T14:20:12.363Z,96844.00
2019-05-25T14:22:41.732Z,96846.00
2019-05-25T14:25:11.317Z,96843.00
2019-05-25T14:27:40.694Z,96847.00
2019-05-25T14:30:11.953Z,96847.00
2019-05-25T14:32:41.326Z,96842.00
2019-05-25T14:35:10.987Z,96843.00
2019-05-25T14:37:40.572Z,96838.00
2019-05-25T14:40:11.397Z,96839.00
2019-05-25T14:42:41.260Z,96830.00
2019-05-25T14:45:11.533Z,96835.00
2019-05-25T14:47:41.293Z,96825.00
2019-05-25T14:50:11.206Z,96817.00
2019-05-25T14:52:43.224Z,96804.00
2019-05-25T14:55:12.172Z,96803.00
2019-05-25T14:57:41.582Z,96794.00
2019-05-25T15:00:12.793Z,96798.00
2019-05-25T15:02:42.439Z,96802.00
2019-05-25T15:05:12.143Z,96797.00
2019-05-25T15:07:41.720Z,96802.00
2019-05-25T15:10:11.534Z,96801.00
2019-05-25T15:12:41.320Z,96805.00
2019-05-25T15:15:12.890Z,96807.00
2019-05-25T15:17:44.065Z,96811.00
2019-05-25T15:20:21.344Z,96819.00
2019-05-25T15:23:00.489Z,96823.00
2019-05-25T15:25:45.248Z,96823.00
2019-05-25T15:28:16.405Z,96833.00
2019-05-25T15:30:47.481Z,96834.00
2019-05-25T15:33:16.914Z,96830.00
2019-05-25T15:35:57.093Z,96837.00
2019-05-25T15:38:26.551Z,96834.00
2019-05-25T15:40:55.990Z,96837.00
2019-05-25T15:43:25.586Z,96827.00
2019-05-25T15:45:54.996Z,96829.00
2019-05-25T15:48:26.328Z,96816.00
2019-05-25T15:50:55.652Z,96825.00
2019-05-25T15:53:25.024Z,96828.00
2019-05-25T15:55:54.412Z,96831.00
2019-05-25T15:58:23.878Z,96840.00
2019-05-25T16:00:53.732Z,96834.00
2019-05-25T16:03:23.242Z,96829.00
2019-05-25T16:05:52.671Z,96825.00
2019-05-25T16:08:22.920Z,96827.00
2019-05-25T16:10:52.404Z,96837.00
2019-05-25T16:13:21.846Z,96833.00
2019-05-25T16:15:51.268Z,96828.00
2019-05-25T16:18:20.816Z,96848.00
2019-05-25T16:20:50.301Z,96838.00
2019-05-25T16:23:19.865Z,96848.00
2019-05-25T16:25:49.473Z,96840.00
2019-05-25T16:28:18.937Z,96843.00
2019-05-25T16:30:48.374Z,96847.00
2019-05-25T16:33:17.746Z,96853.00
2019-05-25T16:35:47.179Z,96853.00
2019-05-25T16:38:16.710Z,96860.00
2019-05-25T16:40:46.071Z,96854.00
2019-05-25T16:43:15.449Z,96860.00
2019-05-25T16:45:44.807Z,96861.00
2019-05-25T16:48:14.184Z,96871.00
2019-05-25T16:50:44.205Z,96870.00
2019-05-25T16:53:13.643Z,96871.00
2019-05-25T16:55:43.307Z,96873.00
2019-05-25T16:58:12.971Z,96874.00
2019-05-25T17:00:42.620Z,96871.00
2019-05-25T17:03:26.797Z,96867.00
2019-05-25T17:05:43.541Z,96874.00
2019-05-25T17:08:12.910Z,96873.00
2019-05-25T17:10:42.304Z,96887.00
2019-05-25T17:13:11.845Z,96876.00
2019-05-25T17:15:41.273Z,96881.00
2019-05-25T17:18:10.734Z,96884.00
2019-05-25T17:20:40.170Z,96876.00
2019-05-25T17:23:09.567Z,96883.00
2019-05-25T17:25:38.895Z,96888.00
2019-05-25T17:28:08.337Z,96879.00
2019-05-25T17:30:44.865Z,96886.00
2019-05-25T17:33:14.820Z,96888.00
2019-05-25T17:35:44.605Z,96897.00
2019-05-25T17:38:14.094Z,96896.00
2019-05-25T17:40:43.507Z,96889.00
2019-05-25T17:43:12.859Z,96886.00
2019-05-25T17:45:42.435Z,96889.00
2019-05-25T17:48:11.854Z,96894.00
2019-05-25T17:50:42.841Z,96891.00
2019-05-25T17:53:12.178Z,96885.00
2019-05-25T17:55:41.697Z,96886.00
2019-05-25T17:58:11.127Z,96887.00
2019-05-25T18:00:47.709Z,96888.00
2019-05-25T18:03:17.192Z,96881.00
2019-05-25T18:05:47.359Z,96882.00
2019-05-25T18:08:16.867Z,96881.00
2019-05-25T18:10:53.555Z,96884.00
2019-05-25T18:13:17.579Z,96889.00
2019-05-25T18:15:47.096Z,96888.00
2019-05-25T18:18:16.460Z,96892.00
2019-05-25T18:20:45.853Z,96889.00
2019-05-25T18:23:15.338Z,96880.00
2019-05-25T18:25:44.724Z,96881.00
2019-05-25T18:28:14.095Z,96884.00
2019-05-25T18:30:43.615Z,96883.00
2019-05-25T18:33:12.970Z,96883.00
2019-05-25T18:35:42.449Z,96881.00
2019-05-25T18:38:11.974Z,96885.00
2019-05-25T18:40:41.429Z,96875.00
2019-05-25T18:43:10.845Z,96887.00
2019-05-25T18:45:40.245Z,96876.00
2019-05-25T18:48:09.618Z,96894.00
2019-05-25T18:50:38.973Z,96898.00
2019-05-25T18:53:08.474Z,96892.00
2019-05-25T18:55:37.935Z,96897.00
2019-05-25T18:58:07.380Z,96894.00
2019-05-25T19:00:36.823Z,96894.00
2019-05-25T19:03:06.311Z,96891.00
2019-05-25T19:05:35.751Z,96894.00
2019-05-25T19:08:05.161Z,96889.00
2019-05-25T19:10:34.678Z,96894.00
2019-05-25T19:13:04.165Z,96897.00
2019-05-25T19:15:33.548Z,96896.00
2019-05-25T19:18:02.991Z,96894.00
2019-05-25T19:20:32.423Z,96891.00
2019-05-25T19:23:01.836Z,96894.00
2019-05-25T19:25:31.287Z,96904.00
2019-05-25T19:28:00.769Z,96901.00
2019-05-25T19:30:30.239Z,96901.00
2019-05-25T19:32:59.718Z,96906.00
2019-05-25T19:35:29.325Z,96913.00
2019-05-25T19:37:58.688Z,96908.00
2019-05-25T19:40:28.059Z,96916.00
2019-05-25T19:42:57.418Z,96911.00
2019-05-25T19:45:26.863Z,96911.00
2019-05-25T19:47:56.216Z,96917.00
2019-05-25T19:50:25.835Z,96913.00
2019-05-25T19:52:55.251Z,96915.00
2019-05-25T19:55:24.639Z,96917.00
2019-05-25T19:57:54.075Z,96918.00
2019-05-25T20:00:23.867Z,96922.00
2019-05-25T20:02:53.227Z,96927.00
2019-05-25T20:05:22.742Z,96927.00
2019-05-25T20:07:52.158Z,96933.00
2019-05-25T20:10:23.151Z,96925.00
2019-05-25T20:12:52.553Z,96933.00
2019-05-25T20:15:22.270Z,96926.00
2019-05-25T20:17:51.624Z,96936.00
2019-05-25T20:20:21.242Z,96934.00
2019-05-25T20:22:50.653Z,96938.00
2019-05-25T20:25:20.151Z,96941.00
2019-05-25T20:27:49.515Z,96937.00
2019-05-25T20:30:18.998Z,96944.00
2019-05-25T20:32:48.439Z,96938.00
2019-05-25T20:35:31.871Z,96938.00
2019-05-25T20:37:48.967Z,96941.00
2019-05-25T20:40:18.313Z,96946.00
2019-05-25T20:42:47.754Z,96942.00
2019-05-25T20:45:17.778Z,96947.00
2019-05-25T20:47:47.239Z,96948.00
2019-05-25T20:50:16.920Z,96950.00
2019-05-25T20:52:46.293Z,96946.00
2019-05-25T20:55:15.710Z,96944.00
2019-05-25T20:57:45.237Z,96950.00
2019-05-25T21:00:14.895Z,96940.00
2019-05-25T21:02:44.276Z,96942.00
2019-05-25T21:05:13.786Z,96937.00
2019-05-25T21:07:43.237Z,96941.00
2019-05-25T21:10:16.877Z,96945.00
2019-05-25T21:12:46.341Z,96951.00
2019-05-25T21:15:16.507Z,96936.00
2019-05-25T21:17:45.900Z,96943.00
2019-05-25T21:20:18.156Z,96945.00
2019-05-25T21:22:50.309Z,96943.00
2019-05-25T21:25:19.804Z,96947.00
2019-05-25T21:27:50.736Z,96943.00
2019-05-25T21:30:20.424Z,96955.00
2019-05-25T21:32:49.854Z,96951.00
2019-05-25T21:35:20.165Z,96950.00
2019-05-25T21:37:49.574Z,96954.00
2019-05-25T21:40:20.537Z,96955.00
2019-05-25T21:42:51.648Z,96956.00
2019-05-25T21:45:22.103Z,96948.00
2019-05-25T21:47:55.156Z,96953.00
2019-05-25T21:50:22.823Z,96943.00
2019-05-25T21:52:52.274Z,96953.00
2019-05-25T21:55:21.765Z,96957.00
2019-05-25T21:57:51.237Z,96958.00
2019-05-25T22:00:22.804Z,96964.00
2019-05-25T22:02:53.967Z,96967.00
2019-05-25T22:05:23.454Z,96963.00
2019-05-25T22:07:53.005Z,96964.00
2019-05-25T22:10:22.428Z,96966.00
2019-05-25T22:12:51.870Z,96969.00
2019-05-25T22:15:21.379Z,96965.00
2019-05-25T22:17:50.770Z,96968.00
2019-05-25T22:20:20.263Z,96961.00
2019-05-25T22:22:49.779Z,96963.00
2019-05-25T22:25:19.265Z,96964.00
2019-05-25T22:27:48.705Z,96966.00
2019-05-25T22:30:18.363Z,96970.00
2019-05-25T22:32:47.749Z,96972.00
2019-05-25T22:35:17.438Z,96968.00
2019-05-25T22:37:46.847Z,96968.00
2019-05-25T22:40:16.595Z,96958.00
2019-05-25T22:42:45.989Z,96963.00
2019-05-25T22:45:16.947Z,96970.00
2019-05-25T22:47:46.323Z,96973.00
2019-05-25T22:50:15.734Z,96970.00
2019-05-25T22:52:45.099Z,96973.00
2019-05-25T22:55:14.784Z,96970.00
2019-05-25T22:57:44.346Z,96973.00
2019-05-25T23:00:14.460Z,96979.00
2019-05-25T23:02:43.892Z,96977.00
2019-05-25T23:05:13.655Z,96969.00
2019-05-25T23:07:44.541Z,96968.00
2019-05-25T23:10:14.375Z,96972.00
2019-05-25T23:12:43.783Z,96969.00
2019-05-25T23:15:13.413Z,96971.00
2019-05-25T23:17:42.962Z,96970.00
2019-05-25T23:20:13.237Z,96962.00
2019-05-25T23:22:42.639Z,96966.00
2019-05-25T23:25:12.251Z,96960.00
2019-05-25T23:27:41.656Z,96969.00
2019-05-25T23:30:11.263Z,96968.00
2019-05-25T23:32:40.602Z,96974.00
2019-05-25T23:35:10.180Z,96977.00
2019-05-25T23:37:39.515Z,96979.00
2019-05-25T23:40:09.821Z,96974.00
2019-05-25T23:42:39.230Z,96975.00
2019-05-25T23:45:09.910Z,96980.00
2019-05-25T23:47:39.322Z,96976.00
2019-05-25T23:50:09.216Z,96982.00
2019-05-25T23:52:38.630Z,96981.00
2019-05-25T23:55:08.201Z,96976.00
2019-05-25T23:57:37.551Z,96976.00
